sensor_id;sensor_type;location;lat;lon;timestamp;P1;durP1;ratioP1;P2;durP2;ratioP2
18443;SDS011;9350;53.176;8.194;2023-03-21T00:02:22;45.08;;;22.15;;
18443;SDS011;9350;53.176;8.194;2023-03-21T00:04:49;38.75;;;21.45;;
18443;SDS011;9350;53.176;8.194;2023-03-21T00:07:16;37.85;;;22.08;;
18443;SDS011;9350;53.176;8.194;2023-03-21T00:09:43;37.63;;;21.38;;
18443;SDS011;9350;53.176;8.194;2023-03-21T00:12:11;38.38;;;21.63;;
18443;SDS011;9350;53.176;8.194;2023-03-21T00:14:38;36.80;;;21.05;;
18443;SDS011;9350;53.176;8.194;2023-03-21T00:17:05;37.72;;;21.70;;
18443;SDS011;9350;53.176;8.194;2023-03-21T00:19:31;40.15;;;20.98;;
18443;SDS011;9350;53.176;8.194;2023-03-21T00:22:02;40.28;;;22.17;;
18443;SDS011;9350;53.176;8.194;2023-03-21T00:24:30;34.92;;;21.52;;
18443;SDS011;9350;53.176;8.194;2023-03-21T00:26:56;39.17;;;21.35;;
18443;SDS011;9350;53.176;8.194;2023-03-21T00:29:24;36.08;;;20.85;;
18443;SDS011;9350;53.176;8.194;2023-03-21T00:31:51;36.55;;;21.60;;
18443;SDS011;9350;53.176;8.194;2023-03-21T00:34:18;39.78;;;21.63;;
18443;SDS011;9350;53.176;8.194;2023-03-21T00:36:44;38.25;;;21.30;;
18443;SDS011;9350;53.176;8.194;2023-03-21T00:39:11;34.20;;;21.50;;
18443;SDS011;9350;53.176;8.194;2023-03-21T00:41:38;35.90;;;22.15;;
18443;SDS011;9350;53.176;8.194;2023-03-21T00:44:05;38.30;;;22.40;;
18443;SDS011;9350;53.176;8.194;2023-03-21T00:46:33;38.30;;;22.70;;
18443;SDS011;9350;53.176;8.194;2023-03-21T00:49:00;39.05;;;21.52;;
18443;SDS011;9350;53.176;8.194;2023-03-21T00:51:27;37.53;;;22.35;;
18443;SDS011;9350;53.176;8.194;2023-03-21T00:53:55;38.45;;;22.08;;
18443;SDS011;9350;53.176;8.194;2023-03-21T00:56:23;35.33;;;21.67;;
18443;SDS011;9350;53.176;8.194;2023-03-21T00:58:50;39.22;;;21.15;;
18443;SDS011;9350;53.176;8.194;2023-03-21T01:01:16;41.63;;;22.45;;
18443;SDS011;9350;53.176;8.194;2023-03-21T01:03:44;40.22;;;21.27;;
18443;SDS011;9350;53.176;8.194;2023-03-21T01:06:14;34.28;;;21.30;;
18443;SDS011;9350;53.176;8.194;2023-03-21T01:08:43;36.05;;;21.40;;
18443;SDS011;9350;53.176;8.194;2023-03-21T01:11:11;34.33;;;21.60;;
18443;SDS011;9350;53.176;8.194;2023-03-21T01:13:40;36.05;;;21.08;;
18443;SDS011;9350;53.176;8.194;2023-03-21T01:16:07;34.13;;;21.00;;
18443;SDS011;9350;53.176;8.194;2023-03-21T01:18:35;36.15;;;22.05;;
18443;SDS011;9350;53.176;8.194;2023-03-21T01:21:07;37.25;;;21.30;;
18443;SDS011;9350;53.176;8.194;2023-03-21T01:23:36;37.33;;;22.33;;
18443;SDS011;9350;53.176;8.194;2023-03-21T01:26:05;41.95;;;23.63;;
18443;SDS011;9350;53.176;8.194;2023-03-21T01:28:32;41.72;;;22.27;;
18443;SDS011;9350;53.176;8.194;2023-03-21T01:31:00;44.35;;;23.63;;
18443;SDS011;9350;53.176;8.194;2023-03-21T01:33:28;42.75;;;23.20;;
18443;SDS011;9350;53.176;8.194;2023-03-21T01:35:55;42.67;;;22.90;;
18443;SDS011;9350;53.176;8.194;2023-03-21T01:38:23;43.55;;;23.42;;
18443;SDS011;9350;53.176;8.194;2023-03-21T01:40:51;53.28;;;24.63;;
18443;SDS011;9350;53.176;8.194;2023-03-21T01:43:22;46.78;;;23.92;;
18443;SDS011;9350;53.176;8.194;2023-03-21T01:46:11;50.35;;;24.38;;
18443;SDS011;9350;53.176;8.194;2023-03-21T01:49:03;44.53;;;24.30;;
18443;SDS011;9350;53.176;8.194;2023-03-21T01:51:35;45.65;;;24.48;;
18443;SDS011;9350;53.176;8.194;2023-03-21T01:54:08;48.70;;;25.17;;
18443;SDS011;9350;53.176;8.194;2023-03-21T01:56:40;44.45;;;24.08;;
18443;SDS011;9350;53.176;8.194;2023-03-21T01:59:12;57.30;;;26.25;;
18443;SDS011;9350;53.176;8.194;2023-03-21T02:01:45;51.85;;;26.00;;
18443;SDS011;9350;53.176;8.194;2023-03-21T02:04:12;49.47;;;25.27;;
18443;SDS011;9350;53.176;8.194;2023-03-21T02:06:42;47.88;;;24.55;;
18443;SDS011;9350;53.176;8.194;2023-03-21T02:09:16;51.65;;;26.45;;
18443;SDS011;9350;53.176;8.194;2023-03-21T02:11:46;49.90;;;25.48;;
18443;SDS011;9350;53.176;8.194;2023-03-21T02:14:14;54.20;;;26.30;;
18443;SDS011;9350;53.176;8.194;2023-03-21T02:16:46;50.15;;;26.70;;
18443;SDS011;9350;53.176;8.194;2023-03-21T02:19:28;52.58;;;26.20;;
18443;SDS011;9350;53.176;8.194;2023-03-21T02:22:22;54.17;;;25.63;;
18443;SDS011;9350;53.176;8.194;2023-03-21T02:28:02;50.80;;;26.52;;
18443;SDS011;9350;53.176;8.194;2023-03-21T02:30:44;47.70;;;25.10;;
18443;SDS011;9350;53.176;8.194;2023-03-21T02:33:33;50.05;;;25.13;;
18443;SDS011;9350;53.176;8.194;2023-03-21T02:36:15;53.17;;;25.70;;
18443;SDS011;9350;53.176;8.194;2023-03-21T02:38:53;51.00;;;25.27;;
18443;SDS011;9350;53.176;8.194;2023-03-21T02:41:27;54.22;;;26.90;;
18443;SDS011;9350;53.176;8.194;2023-03-21T02:44:03;47.70;;;25.17;;
18443;SDS011;9350;53.176;8.194;2023-03-21T02:46:35;50.63;;;26.08;;
18443;SDS011;9350;53.176;8.194;2023-03-21T02:49:10;48.60;;;25.35;;
18443;SDS011;9350;53.176;8.194;2023-03-21T02:51:41;51.30;;;25.80;;
18443;SDS011;9350;53.176;8.194;2023-03-21T02:54:12;52.70;;;25.00;;
18443;SDS011;9350;53.176;8.194;2023-03-21T02:56:41;52.17;;;25.40;;
18443;SDS011;9350;53.176;8.194;2023-03-21T02:59:09;47.40;;;24.88;;
18443;SDS011;9350;53.176;8.194;2023-03-21T03:01:37;42.75;;;23.35;;
18443;SDS011;9350;53.176;8.194;2023-03-21T03:04:15;46.72;;;25.45;;
18443;SDS011;9350;53.176;8.194;2023-03-21T03:06:44;44.78;;;24.40;;
18443;SDS011;9350;53.176;8.194;2023-03-21T03:09:29;51.30;;;26.48;;
18443;SDS011;9350;53.176;8.194;2023-03-21T03:12:10;45.28;;;25.00;;
18443;SDS011;9350;53.176;8.194;2023-03-21T03:14:48;44.42;;;24.83;;
18443;SDS011;9350;53.176;8.194;2023-03-21T03:17:24;45.75;;;24.90;;
18443;SDS011;9350;53.176;8.194;2023-03-21T03:20:07;46.47;;;25.00;;
18443;SDS011;9350;53.176;8.194;2023-03-21T03:22:44;46.25;;;25.17;;
18443;SDS011;9350;53.176;8.194;2023-03-21T03:25:20;42.80;;;23.30;;
18443;SDS011;9350;53.176;8.194;2023-03-21T03:27:52;45.05;;;24.13;;
18443;SDS011;9350;53.176;8.194;2023-03-21T03:30:20;44.45;;;23.92;;
18443;SDS011;9350;53.176;8.194;2023-03-21T03:32:51;52.22;;;27.45;;
18443;SDS011;9350;53.176;8.194;2023-03-21T03:35:22;47.17;;;26.70;;
18443;SDS011;9350;53.176;8.194;2023-03-21T03:37:52;49.63;;;25.17;;
18443;SDS011;9350;53.176;8.194;2023-03-21T03:40:24;47.95;;;25.00;;
18443;SDS011;9350;53.176;8.194;2023-03-21T03:42:55;47.00;;;25.83;;
18443;SDS011;9350;53.176;8.194;2023-03-21T03:45:27;45.75;;;25.50;;
18443;SDS011;9350;53.176;8.194;2023-03-21T03:47:58;45.45;;;26.38;;
18443;SDS011;9350;53.176;8.194;2023-03-21T03:50:32;48.03;;;25.33;;
18443;SDS011;9350;53.176;8.194;2023-03-21T03:53:05;54.38;;;26.88;;
18443;SDS011;9350;53.176;8.194;2023-03-21T03:55:42;50.58;;;26.58;;
18443;SDS011;9350;53.176;8.194;2023-03-21T03:58:10;56.60;;;28.25;;
18443;SDS011;9350;53.176;8.194;2023-03-21T04:00:37;54.95;;;27.10;;
18443;SDS011;9350;53.176;8.194;2023-03-21T04:03:05;72.22;;;31.75;;
18443;SDS011;9350;53.176;8.194;2023-03-21T04:05:33;60.45;;;28.40;;
18443;SDS011;9350;53.176;8.194;2023-03-21T04:08:00;51.17;;;27.83;;
18443;SDS011;9350;53.176;8.194;2023-03-21T04:10:27;63.97;;;28.40;;
18443;SDS011;9350;53.176;8.194;2023-03-21T04:12:55;60.40;;;26.95;;
18443;SDS011;9350;53.176;8.194;2023-03-21T04:15:22;54.55;;;27.38;;
18443;SDS011;9350;53.176;8.194;2023-03-21T04:17:49;62.55;;;29.25;;
18443;SDS011;9350;53.176;8.194;2023-03-21T04:20:16;55.45;;;27.85;;
18443;SDS011;9350;53.176;8.194;2023-03-21T04:22:43;56.80;;;26.17;;
18443;SDS011;9350;53.176;8.194;2023-03-21T04:25:09;52.83;;;26.92;;
18443;SDS011;9350;53.176;8.194;2023-03-21T04:27:37;52.15;;;26.70;;
18443;SDS011;9350;53.176;8.194;2023-03-21T04:30:06;58.88;;;27.70;;
18443;SDS011;9350;53.176;8.194;2023-03-21T04:32:36;66.50;;;30.30;;
18443;SDS011;9350;53.176;8.194;2023-03-21T04:35:03;61.20;;;28.23;;
18443;SDS011;9350;53.176;8.194;2023-03-21T04:37:32;61.15;;;28.70;;
18443;SDS011;9350;53.176;8.194;2023-03-21T04:39:59;65.50;;;28.70;;
18443;SDS011;9350;53.176;8.194;2023-03-21T04:42:30;66.45;;;28.65;;
18443;SDS011;9350;53.176;8.194;2023-03-21T04:44:57;58.70;;;28.48;;
18443;SDS011;9350;53.176;8.194;2023-03-21T04:47:26;64.40;;;28.50;;
18443;SDS011;9350;53.176;8.194;2023-03-21T04:49:53;63.45;;;28.73;;
18443;SDS011;9350;53.176;8.194;2023-03-21T04:52:20;61.80;;;29.73;;
18443;SDS011;9350;53.176;8.194;2023-03-21T04:54:48;68.43;;;30.45;;
18443;SDS011;9350;53.176;8.194;2023-03-21T04:57:15;65.40;;;29.60;;
18443;SDS011;9350;53.176;8.194;2023-03-21T04:59:42;69.43;;;30.15;;
18443;SDS011;9350;53.176;8.194;2023-03-21T05:02:08;62.15;;;30.17;;
18443;SDS011;9350;53.176;8.194;2023-03-21T05:04:37;64.03;;;29.95;;
18443;SDS011;9350;53.176;8.194;2023-03-21T05:07:04;66.40;;;29.63;;
18443;SDS011;9350;53.176;8.194;2023-03-21T05:09:30;64.65;;;29.67;;
18443;SDS011;9350;53.176;8.194;2023-03-21T05:11:58;73.40;;;30.20;;
18443;SDS011;9350;53.176;8.194;2023-03-21T05:14:25;62.33;;;29.58;;
18443;SDS011;9350;53.176;8.194;2023-03-21T05:16:52;73.85;;;29.75;;
18443;SDS011;9350;53.176;8.194;2023-03-21T05:19:21;66.28;;;30.25;;
18443;SDS011;9350;53.176;8.194;2023-03-21T05:22:00;64.68;;;30.10;;
18443;SDS011;9350;53.176;8.194;2023-03-21T05:24:30;63.38;;;29.33;;
18443;SDS011;9350;53.176;8.194;2023-03-21T05:26:57;76.60;;;29.85;;
18443;SDS011;9350;53.176;8.194;2023-03-21T05:29:27;65.25;;;29.75;;
18443;SDS011;9350;53.176;8.194;2023-03-21T05:31:55;68.65;;;30.85;;
18443;SDS011;9350;53.176;8.194;2023-03-21T05:34:22;76.50;;;30.10;;
18443;SDS011;9350;53.176;8.194;2023-03-21T05:36:49;64.57;;;30.58;;
18443;SDS011;9350;53.176;8.194;2023-03-21T05:39:17;72.28;;;30.23;;
18443;SDS011;9350;53.176;8.194;2023-03-21T05:41:44;69.72;;;31.52;;
18443;SDS011;9350;53.176;8.194;2023-03-21T05:44:11;66.72;;;29.80;;
18443;SDS011;9350;53.176;8.194;2023-03-21T05:46:38;74.38;;;31.23;;
18443;SDS011;9350;53.176;8.194;2023-03-21T05:49:05;65.38;;;29.25;;
18443;SDS011;9350;53.176;8.194;2023-03-21T05:51:31;72.95;;;29.52;;
18443;SDS011;9350;53.176;8.194;2023-03-21T05:53:58;63.03;;;28.85;;
18443;SDS011;9350;53.176;8.194;2023-03-21T05:56:26;64.50;;;29.13;;
18443;SDS011;9350;53.176;8.194;2023-03-21T05:58:56;68.85;;;28.70;;
18443;SDS011;9350;53.176;8.194;2023-03-21T06:01:38;63.10;;;29.83;;
18443;SDS011;9350;53.176;8.194;2023-03-21T06:04:05;60.15;;;27.92;;
18443;SDS011;9350;53.176;8.194;2023-03-21T06:06:32;54.75;;;27.98;;
18443;SDS011;9350;53.176;8.194;2023-03-21T06:08:59;61.30;;;28.60;;
18443;SDS011;9350;53.176;8.194;2023-03-21T06:11:31;65.28;;;29.08;;
18443;SDS011;9350;53.176;8.194;2023-03-21T06:14:00;63.97;;;27.58;;
18443;SDS011;9350;53.176;8.194;2023-03-21T06:16:28;57.42;;;28.63;;
18443;SDS011;9350;53.176;8.194;2023-03-21T06:18:55;62.83;;;28.10;;
18443;SDS011;9350;53.176;8.194;2023-03-21T06:21:22;69.28;;;27.80;;
18443;SDS011;9350;53.176;8.194;2023-03-21T06:23:48;63.85;;;29.50;;
18443;SDS011;9350;53.176;8.194;2023-03-21T06:26:16;59.30;;;27.83;;
18443;SDS011;9350;53.176;8.194;2023-03-21T06:28:48;53.70;;;27.60;;
18443;SDS011;9350;53.176;8.194;2023-03-21T06:31:15;53.00;;;27.02;;
18443;SDS011;9350;53.176;8.194;2023-03-21T06:33:42;53.92;;;26.00;;
18443;SDS011;9350;53.176;8.194;2023-03-21T06:36:10;52.67;;;25.73;;
18443;SDS011;9350;53.176;8.194;2023-03-21T06:38:36;59.13;;;27.70;;
18443;SDS011;9350;53.176;8.194;2023-03-21T06:41:03;60.40;;;26.55;;
18443;SDS011;9350;53.176;8.194;2023-03-21T06:43:31;60.30;;;26.15;;
18443;SDS011;9350;53.176;8.194;2023-03-21T06:46:00;51.45;;;25.75;;
18443;SDS011;9350;53.176;8.194;2023-03-21T06:48:28;56.65;;;26.30;;
18443;SDS011;9350;53.176;8.194;2023-03-21T06:50:54;50.10;;;25.45;;
18443;SDS011;9350;53.176;8.194;2023-03-21T06:53:21;52.88;;;25.80;;
18443;SDS011;9350;53.176;8.194;2023-03-21T06:55:51;50.90;;;24.20;;
18443;SDS011;9350;53.176;8.194;2023-03-21T06:58:19;43.08;;;23.63;;
18443;SDS011;9350;53.176;8.194;2023-03-21T07:00:47;44.63;;;23.13;;
18443;SDS011;9350;53.176;8.194;2023-03-21T07:03:16;39.58;;;22.58;;
18443;SDS011;9350;53.176;8.194;2023-03-21T07:05:47;41.05;;;22.75;;
18443;SDS011;9350;53.176;8.194;2023-03-21T07:08:14;48.65;;;22.92;;
18443;SDS011;9350;53.176;8.194;2023-03-21T07:10:42;43.35;;;21.98;;
18443;SDS011;9350;53.176;8.194;2023-03-21T07:13:10;38.55;;;21.40;;
18443;SDS011;9350;53.176;8.194;2023-03-21T07:15:37;37.60;;;20.42;;
18443;SDS011;9350;53.176;8.194;2023-03-21T07:18:05;41.72;;;21.75;;
18443;SDS011;9350;53.176;8.194;2023-03-21T07:20:35;38.97;;;21.02;;
18443;SDS011;9350;53.176;8.194;2023-03-21T07:23:03;34.90;;;20.83;;
18443;SDS011;9350;53.176;8.194;2023-03-21T07:25:29;39.33;;;19.92;;
18443;SDS011;9350;53.176;8.194;2023-03-21T07:27:56;36.92;;;20.20;;
18443;SDS011;9350;53.176;8.194;2023-03-21T07:30:23;36.90;;;20.10;;
18443;SDS011;9350;53.176;8.194;2023-03-21T07:32:50;42.42;;;20.00;;
18443;SDS011;9350;53.176;8.194;2023-03-21T07:35:17;37.33;;;20.45;;
18443;SDS011;9350;53.176;8.194;2023-03-21T07:37:45;36.15;;;19.75;;
18443;SDS011;9350;53.176;8.194;2023-03-21T07:40:12;33.45;;;19.30;;
18443;SDS011;9350;53.176;8.194;2023-03-21T07:42:39;35.78;;;19.55;;
18443;SDS011;9350;53.176;8.194;2023-03-21T07:45:07;33.53;;;18.88;;
18443;SDS011;9350;53.176;8.194;2023-03-21T07:47:36;33.45;;;18.02;;
18443;SDS011;9350;53.176;8.194;2023-03-21T07:50:03;30.35;;;17.50;;
18443;SDS011;9350;53.176;8.194;2023-03-21T07:52:31;28.88;;;17.33;;
18443;SDS011;9350;53.176;8.194;2023-03-21T07:54:59;28.70;;;17.48;;
18443;SDS011;9350;53.176;8.194;2023-03-21T07:57:25;28.70;;;17.55;;
18443;SDS011;9350;53.176;8.194;2023-03-21T07:59:52;31.10;;;17.90;;
18443;SDS011;9350;53.176;8.194;2023-03-21T08:02:19;26.48;;;16.67;;
18443;SDS011;9350;53.176;8.194;2023-03-21T08:04:46;27.92;;;16.85;;
18443;SDS011;9350;53.176;8.194;2023-03-21T08:07:13;27.58;;;17.13;;
18443;SDS011;9350;53.176;8.194;2023-03-21T08:09:39;25.52;;;16.40;;
18443;SDS011;9350;53.176;8.194;2023-03-21T08:12:10;24.25;;;16.17;;
18443;SDS011;9350;53.176;8.194;2023-03-21T08:14:37;27.88;;;15.75;;
18443;SDS011;9350;53.176;8.194;2023-03-21T08:17:03;24.95;;;15.63;;
18443;SDS011;9350;53.176;8.194;2023-03-21T08:19:33;25.58;;;15.90;;
18443;SDS011;9350;53.176;8.194;2023-03-21T08:22:01;25.88;;;15.95;;
18443;SDS011;9350;53.176;8.194;2023-03-21T08:24:30;27.65;;;16.25;;
18443;SDS011;9350;53.176;8.194;2023-03-21T08:26:58;30.10;;;16.25;;
18443;SDS011;9350;53.176;8.194;2023-03-21T08:29:26;28.83;;;16.35;;
18443;SDS011;9350;53.176;8.194;2023-03-21T08:31:53;25.20;;;15.13;;
18443;SDS011;9350;53.176;8.194;2023-03-21T08:34:19;25.30;;;14.63;;
18443;SDS011;9350;53.176;8.194;2023-03-21T08:36:47;25.67;;;15.73;;
18443;SDS011;9350;53.176;8.194;2023-03-21T08:39:13;22.30;;;14.27;;
18443;SDS011;9350;53.176;8.194;2023-03-21T08:41:40;22.13;;;13.88;;
18443;SDS011;9350;53.176;8.194;2023-03-21T08:44:07;26.20;;;13.65;;
18443;SDS011;9350;53.176;8.194;2023-03-21T08:46:36;18.40;;;13.07;;
18443;SDS011;9350;53.176;8.194;2023-03-21T08:49:03;19.65;;;13.32;;
18443;SDS011;9350;53.176;8.194;2023-03-21T08:51:30;24.75;;;13.18;;
18443;SDS011;9350;53.176;8.194;2023-03-21T08:53:58;21.35;;;13.20;;
18443;SDS011;9350;53.176;8.194;2023-03-21T08:56:25;19.42;;;12.70;;
18443;SDS011;9350;53.176;8.194;2023-03-21T08:58:52;17.90;;;12.40;;
18443;SDS011;9350;53.176;8.194;2023-03-21T09:01:18;19.27;;;13.07;;
18443;SDS011;9350;53.176;8.194;2023-03-21T09:03:47;19.52;;;12.77;;
18443;SDS011;9350;53.176;8.194;2023-03-21T09:06:13;22.52;;;13.93;;
18443;SDS011;9350;53.176;8.194;2023-03-21T09:08:41;18.83;;;12.63;;
18443;SDS011;9350;53.176;8.194;2023-03-21T09:11:10;20.25;;;12.98;;
18443;SDS011;9350;53.176;8.194;2023-03-21T09:13:36;16.83;;;12.27;;
18443;SDS011;9350;53.176;8.194;2023-03-21T09:16:03;18.35;;;12.25;;
18443;SDS011;9350;53.176;8.194;2023-03-21T09:18:30;22.60;;;13.20;;
18443;SDS011;9350;53.176;8.194;2023-03-21T09:21:12;18.05;;;12.38;;
18443;SDS011;9350;53.176;8.194;2023-03-21T09:23:40;18.23;;;12.32;;
18443;SDS011;9350;53.176;8.194;2023-03-21T09:26:09;18.83;;;12.10;;
18443;SDS011;9350;53.176;8.194;2023-03-21T09:28:36;17.42;;;11.70;;
18443;SDS011;9350;53.176;8.194;2023-03-21T09:31:04;22.30;;;13.65;;
18443;SDS011;9350;53.176;8.194;2023-03-21T09:33:32;19.63;;;11.48;;
18443;SDS011;9350;53.176;8.194;2023-03-21T09:35:59;19.10;;;11.57;;
18443;SDS011;9350;53.176;8.194;2023-03-21T09:38:27;17.17;;;11.85;;
18443;SDS011;9350;53.176;8.194;2023-03-21T09:41:03;20.63;;;12.13;;
18443;SDS011;9350;53.176;8.194;2023-03-21T09:43:39;16.70;;;11.00;;
18443;SDS011;9350;53.176;8.194;2023-03-21T09:46:15;17.77;;;11.38;;
18443;SDS011;9350;53.176;8.194;2023-03-21T09:48:51;17.15;;;10.90;;
18443;SDS011;9350;53.176;8.194;2023-03-21T09:51:22;18.40;;;11.98;;
18443;SDS011;9350;53.176;8.194;2023-03-21T09:53:54;18.92;;;11.77;;
18443;SDS011;9350;53.176;8.194;2023-03-21T09:56:22;19.45;;;11.50;;
18443;SDS011;9350;53.176;8.194;2023-03-21T09:58:51;16.73;;;11.02;;
18443;SDS011;9350;53.176;8.194;2023-03-21T10:01:22;16.95;;;11.77;;
18443;SDS011;9350;53.176;8.194;2023-03-21T10:03:53;18.35;;;11.77;;
18443;SDS011;9350;53.176;8.194;2023-03-21T10:06:21;17.52;;;11.20;;
18443;SDS011;9350;53.176;8.194;2023-03-21T10:08:54;16.35;;;10.57;;
18443;SDS011;9350;53.176;8.194;2023-03-21T10:11:24;16.10;;;10.38;;
18443;SDS011;9350;53.176;8.194;2023-03-21T10:13:53;16.73;;;10.90;;
18443;SDS011;9350;53.176;8.194;2023-03-21T10:16:25;16.60;;;10.27;;
18443;SDS011;9350;53.176;8.194;2023-03-21T10:18:55;14.10;;;9.65;;
18443;SDS011;9350;53.176;8.194;2023-03-21T10:21:25;17.42;;;9.48;;
18443;SDS011;9350;53.176;8.194;2023-03-21T10:23:55;16.55;;;10.18;;
18443;SDS011;9350;53.176;8.194;2023-03-21T10:26:24;16.10;;;10.23;;
18443;SDS011;9350;53.176;8.194;2023-03-21T10:28:54;15.63;;;9.68;;
18443;SDS011;9350;53.176;8.194;2023-03-21T10:31:24;14.90;;;9.52;;
18443;SDS011;9350;53.176;8.194;2023-03-21T10:33:54;13.23;;;9.45;;
18443;SDS011;9350;53.176;8.194;2023-03-21T10:36:23;14.50;;;9.60;;
18443;SDS011;9350;53.176;8.194;2023-03-21T10:38:52;15.30;;;10.00;;
18443;SDS011;9350;53.176;8.194;2023-03-21T10:41:23;14.73;;;10.50;;
18443;SDS011;9350;53.176;8.194;2023-03-21T10:44:02;16.58;;;10.40;;
18443;SDS011;9350;53.176;8.194;2023-03-21T10:46:31;18.35;;;11.30;;
18443;SDS011;9350;53.176;8.194;2023-03-21T10:48:58;18.42;;;10.75;;
18443;SDS011;9350;53.176;8.194;2023-03-21T10:51:26;17.60;;;11.45;;
18443;SDS011;9350;53.176;8.194;2023-03-21T10:53:57;20.45;;;11.60;;
18443;SDS011;9350;53.176;8.194;2023-03-21T10:56:26;19.13;;;10.82;;
18443;SDS011;9350;53.176;8.194;2023-03-21T10:58:55;16.73;;;10.80;;
18443;SDS011;9350;53.176;8.194;2023-03-21T11:01:25;18.52;;;11.40;;
18443;SDS011;9350;53.176;8.194;2023-03-21T11:03:55;20.45;;;11.73;;
18443;SDS011;9350;53.176;8.194;2023-03-21T11:06:26;20.27;;;11.48;;
18443;SDS011;9350;53.176;8.194;2023-03-21T11:08:58;16.50;;;10.55;;
18443;SDS011;9350;53.176;8.194;2023-03-21T11:11:32;17.58;;;10.43;;
18443;SDS011;9350;53.176;8.194;2023-03-21T11:14:01;20.00;;;10.95;;
18443;SDS011;9350;53.176;8.194;2023-03-21T11:16:34;18.10;;;10.25;;
18443;SDS011;9350;53.176;8.194;2023-03-21T11:19:11;19.15;;;11.23;;
18443;SDS011;9350;53.176;8.194;2023-03-21T11:21:40;21.42;;;10.43;;
18443;SDS011;9350;53.176;8.194;2023-03-21T11:24:10;19.40;;;11.68;;
18443;SDS011;9350;53.176;8.194;2023-03-21T11:26:40;19.80;;;10.95;;
18443;SDS011;9350;53.176;8.194;2023-03-21T11:29:11;18.17;;;10.82;;
18443;SDS011;9350;53.176;8.194;2023-03-21T11:31:48;20.58;;;11.57;;
18443;SDS011;9350;53.176;8.194;2023-03-21T11:34:23;20.23;;;10.85;;
18443;SDS011;9350;53.176;8.194;2023-03-21T11:36:51;17.20;;;11.15;;
18443;SDS011;9350;53.176;8.194;2023-03-21T11:39:34;19.42;;;11.45;;
18443;SDS011;9350;53.176;8.194;2023-03-21T11:42:04;22.10;;;11.30;;
18443;SDS011;9350;53.176;8.194;2023-03-21T11:44:50;18.73;;;11.32;;
18443;SDS011;9350;53.176;8.194;2023-03-21T11:47:25;19.23;;;10.68;;
18443;SDS011;9350;53.176;8.194;2023-03-21T11:49:52;16.80;;;11.00;;
18443;SDS011;9350;53.176;8.194;2023-03-21T11:52:22;17.75;;;11.23;;
18443;SDS011;9350;53.176;8.194;2023-03-21T11:54:59;20.35;;;12.10;;
18443;SDS011;9350;53.176;8.194;2023-03-21T11:57:35;19.48;;;11.05;;
18443;SDS011;9350;53.176;8.194;2023-03-21T12:00:11;22.75;;;11.90;;
18443;SDS011;9350;53.176;8.194;2023-03-21T12:02:52;21.35;;;12.52;;
18443;SDS011;9350;53.176;8.194;2023-03-21T12:05:50;24.13;;;11.90;;
18443;SDS011;9350;53.176;8.194;2023-03-21T12:08:22;26.23;;;13.05;;
18443;SDS011;9350;53.176;8.194;2023-03-21T12:11:00;19.17;;;12.02;;
18443;SDS011;9350;53.176;8.194;2023-03-21T12:13:35;21.70;;;12.70;;
18443;SDS011;9350;53.176;8.194;2023-03-21T12:16:17;24.75;;;13.20;;
18443;SDS011;9350;53.176;8.194;2023-03-21T12:18:59;22.48;;;12.40;;
18443;SDS011;9350;53.176;8.194;2023-03-21T12:21:37;25.38;;;12.48;;
18443;SDS011;9350;53.176;8.194;2023-03-21T12:24:13;21.80;;;12.35;;
18443;SDS011;9350;53.176;8.194;2023-03-21T12:26:47;22.50;;;12.40;;
18443;SDS011;9350;53.176;8.194;2023-03-21T12:29:25;23.60;;;13.23;;
18443;SDS011;9350;53.176;8.194;2023-03-21T12:32:03;19.90;;;12.00;;
18443;SDS011;9350;53.176;8.194;2023-03-21T12:34:54;21.20;;;12.60;;
18443;SDS011;9350;53.176;8.194;2023-03-21T12:37:31;23.75;;;13.45;;
18443;SDS011;9350;53.176;8.194;2023-03-21T12:40:08;25.02;;;12.98;;
18443;SDS011;9350;53.176;8.194;2023-03-21T12:42:47;28.23;;;13.75;;
18443;SDS011;9350;53.176;8.194;2023-03-21T12:45:22;23.83;;;13.27;;
18443;SDS011;9350;53.176;8.194;2023-03-21T12:47:54;26.52;;;13.43;;
18443;SDS011;9350;53.176;8.194;2023-03-21T12:50:25;28.75;;;14.68;;
18443;SDS011;9350;53.176;8.194;2023-03-21T12:52:55;25.73;;;14.38;;
18443;SDS011;9350;53.176;8.194;2023-03-21T12:55:25;28.77;;;14.07;;
18443;SDS011;9350;53.176;8.194;2023-03-21T12:57:57;32.20;;;14.98;;
18443;SDS011;9350;53.176;8.194;2023-03-21T13:00:31;28.42;;;15.75;;
18443;SDS011;9350;53.176;8.194;2023-03-21T13:03:02;27.30;;;15.57;;
18443;SDS011;9350;53.176;8.194;2023-03-21T13:05:34;29.80;;;16.60;;
18443;SDS011;9350;53.176;8.194;2023-03-21T13:08:04;26.30;;;15.90;;
18443;SDS011;9350;53.176;8.194;2023-03-21T13:10:39;31.20;;;15.73;;
18443;SDS011;9350;53.176;8.194;2023-03-21T13:13:13;26.73;;;16.85;;
18443;SDS011;9350;53.176;8.194;2023-03-21T13:15:52;28.35;;;16.35;;
18443;SDS011;9350;53.176;8.194;2023-03-21T13:18:28;26.90;;;16.05;;
18443;SDS011;9350;53.176;8.194;2023-03-21T13:21:03;30.27;;;16.15;;
18443;SDS011;9350;53.176;8.194;2023-03-21T13:23:37;28.08;;;15.85;;
18443;SDS011;9350;53.176;8.194;2023-03-21T13:26:07;22.48;;;14.88;;
18443;SDS011;9350;53.176;8.194;2023-03-21T13:28:37;20.20;;;13.88;;
18443;SDS011;9350;53.176;8.194;2023-03-21T13:31:13;22.52;;;14.80;;
18443;SDS011;9350;53.176;8.194;2023-03-21T13:33:44;25.95;;;16.50;;
18443;SDS011;9350;53.176;8.194;2023-03-21T13:36:12;28.63;;;17.13;;
18443;SDS011;9350;53.176;8.194;2023-03-21T13:38:40;25.27;;;15.70;;
18443;SDS011;9350;53.176;8.194;2023-03-21T13:41:15;30.63;;;17.02;;
18443;SDS011;9350;53.176;8.194;2023-03-21T13:43:50;27.33;;;16.42;;
18443;SDS011;9350;53.176;8.194;2023-03-21T13:46:33;26.38;;;16.42;;
18443;SDS011;9350;53.176;8.194;2023-03-21T13:49:12;25.50;;;15.18;;
18443;SDS011;9350;53.176;8.194;2023-03-21T13:51:42;22.63;;;14.80;;
18443;SDS011;9350;53.176;8.194;2023-03-21T13:54:17;22.65;;;14.30;;
18443;SDS011;9350;53.176;8.194;2023-03-21T13:56:55;27.40;;;15.52;;
18443;SDS011;9350;53.176;8.194;2023-03-21T13:59:38;27.27;;;14.32;;
18443;SDS011;9350;53.176;8.194;2023-03-21T14:02:20;22.52;;;14.00;;
18443;SDS011;9350;53.176;8.194;2023-03-21T14:04:53;23.02;;;13.77;;
18443;SDS011;9350;53.176;8.194;2023-03-21T14:07:24;25.88;;;13.77;;
18443;SDS011;9350;53.176;8.194;2023-03-21T14:09:54;22.33;;;14.32;;
18443;SDS011;9350;53.176;8.194;2023-03-21T14:12:25;24.30;;;14.38;;
18443;SDS011;9350;53.176;8.194;2023-03-21T14:14:58;28.75;;;15.00;;
18443;SDS011;9350;53.176;8.194;2023-03-21T14:17:28;27.67;;;14.52;;
18443;SDS011;9350;53.176;8.194;2023-03-21T14:20:00;23.80;;;13.50;;
18443;SDS011;9350;53.176;8.194;2023-03-21T14:22:36;20.48;;;13.18;;
18443;SDS011;9350;53.176;8.194;2023-03-21T14:25:05;22.67;;;14.30;;
18443;SDS011;9350;53.176;8.194;2023-03-21T14:27:36;26.13;;;14.43;;
18443;SDS011;9350;53.176;8.194;2023-03-21T14:30:05;21.70;;;13.93;;
18443;SDS011;9350;53.176;8.194;2023-03-21T14:32:39;23.85;;;14.55;;
18443;SDS011;9350;53.176;8.194;2023-03-21T14:35:08;23.70;;;14.15;;
18443;SDS011;9350;53.176;8.194;2023-03-21T14:37:37;25.20;;;15.10;;
18443;SDS011;9350;53.176;8.194;2023-03-21T14:40:07;24.83;;;15.73;;
18443;SDS011;9350;53.176;8.194;2023-03-21T14:42:44;20.17;;;14.85;;
18443;SDS011;9350;53.176;8.194;2023-03-21T14:45:16;23.60;;;15.05;;
18443;SDS011;9350;53.176;8.194;2023-03-21T14:47:52;25.63;;;16.15;;
18443;SDS011;9350;53.176;8.194;2023-03-21T14:50:21;26.50;;;15.32;;
18443;SDS011;9350;53.176;8.194;2023-03-21T14:52:51;23.83;;;16.25;;
18443;SDS011;9350;53.176;8.194;2023-03-21T14:55:18;24.00;;;15.60;;
18443;SDS011;9350;53.176;8.194;2023-03-21T14:57:45;22.83;;;15.52;;
18443;SDS011;9350;53.176;8.194;2023-03-21T15:00:16;28.58;;;17.00;;